sensor_id;sensor_type;location;lat;lon;timestamp;temperature;humidity
8662;DHT22;29684;47.722;9.388;2022-10-17T00:02:11;11.70;99.90
8662;DHT22;29684;47.722;9.388;2022-10-17T00:04:55;11.70;99.90
8662;DHT22;29684;47.722;9.388;2022-10-17T00:07:39;11.60;99.90
8662;DHT22;29684;47.722;9.388;2022-10-17T00:10:23;11.40;99.90
8662;DHT22;29684;47.722;9.388;2022-10-17T00:13:08;11.50;99.90
8662;DHT22;29684;47.722;9.388;2022-10-17T00:15:52;11.50;99.90
8662;DHT22;29684;47.722;9.388;2022-10-17T00:18:37;11.40;99.90
8662;DHT22;29684;47.722;9.388;2022-10-17T00:21:22;11.40;99.90
8662;DHT22;29684;47.722;9.388;2022-10-17T00:24:06;11.40;99.90
8662;DHT22;29684;47.722;9.388;2022-10-17T00:26:50;11.40;99.90
8662;DHT22;29684;47.722;9.388;2022-10-17T00:29:34;11.50;99.90
8662;DHT22;29684;47.722;9.388;2022-10-17T00:32:19;11.50;99.90
8662;DHT22;29684;47.722;9.388;2022-10-17T00:35:04;11.50;99.90
8662;DHT22;29684;47.722;9.388;2022-10-17T00:37:48;11.40;99.90
8662;DHT22;29684;47.722;9.388;2022-10-17T00:40:32;11.40;99.90
8662;DHT22;29684;47.722;9.388;2022-10-17T00:43:16;11.50;99.90
8662;DHT22;29684;47.722;9.388;2022-10-17T00:46:01;11.50;99.90
8662;DHT22;29684;47.722;9.388;2022-10-17T00:48:45;11.20;99.90
8662;DHT22;29684;47.722;9.388;2022-10-17T00:51:42;11.10;99.90
8662;DHT22;29684;47.722;9.388;2022-10-17T00:54:30;10.90;99.90
8662;DHT22;29684;47.722;9.388;2022-10-17T00:57:16;11.00;99.90
8662;DHT22;29684;47.722;9.388;2022-10-17T01:00:04;10.80;99.90
8662;DHT22;29684;47.722;9.388;2022-10-17T01:02:48;10.70;99.90
8662;DHT22;29684;47.722;9.388;2022-10-17T01:05:33;10.60;99.90
8662;DHT22;29684;47.722;9.388;2022-10-17T01:08:17;10.60;99.90
8662;DHT22;29684;47.722;9.388;2022-10-17T01:13:51;10.60;99.90
8662;DHT22;29684;47.722;9.388;2022-10-17T01:16:45;10.70;99.90
8662;DHT22;29684;47.722;9.388;2022-10-17T01:26:33;11.10;99.90
8662;DHT22;29684;47.722;9.388;2022-10-17T01:29:46;11.10;99.90
8662;DHT22;29684;47.722;9.388;2022-10-17T01:32:39;10.90;99.90
8662;DHT22;29684;47.722;9.388;2022-10-17T01:35:32;11.10;99.90
8662;DHT22;29684;47.722;9.388;2022-10-17T01:38:33;11.10;99.90
8662;DHT22;29684;47.722;9.388;2022-10-17T01:41:36;11.00;99.90
8662;DHT22;29684;47.722;9.388;2022-10-17T01:44:35;10.80;99.90
8662;DHT22;29684;47.722;9.388;2022-10-17T01:47:25;10.80;99.90
8662;DHT22;29684;47.722;9.388;2022-10-17T01:50:17;10.60;99.90
8662;DHT22;29684;47.722;9.388;2022-10-17T01:53:24;10.80;99.90
8662;DHT22;29684;47.722;9.388;2022-10-17T01:56:10;10.80;99.90
8662;DHT22;29684;47.722;9.388;2022-10-17T01:59:00;10.80;99.90
8662;DHT22;29684;47.722;9.388;2022-10-17T02:01:48;11.00;99.90
8662;DHT22;29684;47.722;9.388;2022-10-17T02:04:34;11.00;99.90
8662;DHT22;29684;47.722;9.388;2022-10-17T02:07:19;10.80;99.90
8662;DHT22;29684;47.722;9.388;2022-10-17T02:10:11;10.40;99.90
8662;DHT22;29684;47.722;9.388;2022-10-17T02:17:07;10.20;99.90
8662;DHT22;29684;47.722;9.388;2022-10-17T02:22:48;10.10;99.90
8662;DHT22;29684;47.722;9.388;2022-10-17T02:28:46;10.10;99.90
8662;DHT22;29684;47.722;9.388;2022-10-17T02:31:55;10.00;99.90
8662;DHT22;29684;47.722;9.388;2022-10-17T02:34:50;10.00;99.90
8662;DHT22;29684;47.722;9.388;2022-10-17T02:37:37;10.20;99.90
8662;DHT22;29684;47.722;9.388;2022-10-17T02:40:24;10.20;99.90
8662;DHT22;29684;47.722;9.388;2022-10-17T02:43:11;10.30;99.90
8662;DHT22;29684;47.722;9.388;2022-10-17T02:45:56;10.40;99.90
8662;DHT22;29684;47.722;9.388;2022-10-17T02:48:48;10.10;99.90
8662;DHT22;29684;47.722;9.388;2022-10-17T02:58:22;10.00;99.90
8662;DHT22;29684;47.722;9.388;2022-10-17T03:00:37;10.00;99.90
8662;DHT22;29684;47.722;9.388;2022-10-17T03:03:27;9.90;99.90
8662;DHT22;29684;47.722;9.388;2022-10-17T03:06:12;9.80;99.90
8662;DHT22;29684;47.722;9.388;2022-10-17T03:08:56;10.00;99.90
8662;DHT22;29684;47.722;9.388;2022-10-17T03:11:40;10.00;99.90
8662;DHT22;29684;47.722;9.388;2022-10-17T03:14:24;9.90;99.90
8662;DHT22;29684;47.722;9.388;2022-10-17T03:17:08;10.10;99.90
8662;DHT22;29684;47.722;9.388;2022-10-17T03:19:52;9.90;99.90
8662;DHT22;29684;47.722;9.388;2022-10-17T03:22:36;9.90;99.90
8662;DHT22;29684;47.722;9.388;2022-10-17T03:25:20;9.60;99.90
8662;DHT22;29684;47.722;9.388;2022-10-17T03:28:04;9.80;99.90
8662;DHT22;29684;47.722;9.388;2022-10-17T03:30:48;9.80;99.90
8662;DHT22;29684;47.722;9.388;2022-10-17T03:33:32;9.80;99.90
8662;DHT22;29684;47.722;9.388;2022-10-17T03:36:18;9.80;99.90
8662;DHT22;29684;47.722;9.388;2022-10-17T03:39:02;9.90;99.90
8662;DHT22;29684;47.722;9.388;2022-10-17T03:41:46;10.00;99.90
8662;DHT22;29684;47.722;9.388;2022-10-17T03:44:30;10.20;99.90
8662;DHT22;29684;47.722;9.388;2022-10-17T03:47:14;9.70;99.90
8662;DHT22;29684;47.722;9.388;2022-10-17T03:49:58;9.80;99.90
8662;DHT22;29684;47.722;9.388;2022-10-17T03:52:46;9.50;99.90
8662;DHT22;29684;47.722;9.388;2022-10-17T03:55:31;9.50;99.90
8662;DHT22;29684;47.722;9.388;2022-10-17T03:58:15;9.50;99.90
8662;DHT22;29684;47.722;9.388;2022-10-17T04:01:07;9.40;99.90
8662;DHT22;29684;47.722;9.388;2022-10-17T04:03:54;9.40;99.90
8662;DHT22;29684;47.722;9.388;2022-10-17T04:06:38;9.50;99.90
8662;DHT22;29684;47.722;9.388;2022-10-17T04:09:22;9.50;99.90
8662;DHT22;29684;47.722;9.388;2022-10-17T04:12:06;9.40;99.90
8662;DHT22;29684;47.722;9.388;2022-10-17T04:14:51;9.40;99.90
8662;DHT22;29684;47.722;9.388;2022-10-17T04:17:35;9.50;99.90
8662;DHT22;29684;47.722;9.388;2022-10-17T04:20:19;9.60;99.90
8662;DHT22;29684;47.722;9.388;2022-10-17T04:23:03;9.60;99.90
8662;DHT22;29684;47.722;9.388;2022-10-17T04:25:47;9.60;99.90
8662;DHT22;29684;47.722;9.388;2022-10-17T04:28:32;9.50;99.90
8662;DHT22;29684;47.722;9.388;2022-10-17T04:31:16;9.70;99.90
8662;DHT22;29684;47.722;9.388;2022-10-17T04:34:01;9.80;99.90
8662;DHT22;29684;47.722;9.388;2022-10-17T04:36:46;9.70;99.90
8662;DHT22;29684;47.722;9.388;2022-10-17T04:39:30;9.80;99.90
8662;DHT22;29684;47.722;9.388;2022-10-17T04:42:14;9.80;99.90
8662;DHT22;29684;47.722;9.388;2022-10-17T04:44:58;9.80;99.90
8662;DHT22;29684;47.722;9.388;2022-10-17T04:47:42;9.80;99.90
8662;DHT22;29684;47.722;9.388;2022-10-17T04:50:26;9.70;99.90
8662;DHT22;29684;47.722;9.388;2022-10-17T04:53:10;9.60;99.90
8662;DHT22;29684;47.722;9.388;2022-10-17T04:56:00;9.50;99.90
8662;DHT22;29684;47.722;9.388;2022-10-17T04:58:46;9.30;99.90
8662;DHT22;29684;47.722;9.388;2022-10-17T05:01:30;9.30;99.90
8662;DHT22;29684;47.722;9.388;2022-10-17T05:04:17;9.20;99.90
8662;DHT22;29684;47.722;9.388;2022-10-17T05:07:01;9.10;99.90
8662;DHT22;29684;47.722;9.388;2022-10-17T05:09:48;9.10;99.90
8662;DHT22;29684;47.722;9.388;2022-10-17T05:12:32;9.20;99.90
8662;DHT22;29684;47.722;9.388;2022-10-17T05:15:16;9.20;99.90
8662;DHT22;29684;47.722;9.388;2022-10-17T05:18:01;9.20;99.90
8662;DHT22;29684;47.722;9.388;2022-10-17T05:20:45;9.10;99.90
8662;DHT22;29684;47.722;9.388;2022-10-17T05:23:29;9.10;99.90
8662;DHT22;29684;47.722;9.388;2022-10-17T05:26:14;9.00;99.90
8662;DHT22;29684;47.722;9.388;2022-10-17T05:28:59;9.10;99.90
8662;DHT22;29684;47.722;9.388;2022-10-17T05:31:45;9.20;99.90
8662;DHT22;29684;47.722;9.388;2022-10-17T05:34:29;9.20;99.90
8662;DHT22;29684;47.722;9.388;2022-10-17T05:37:13;9.20;99.90
8662;DHT22;29684;47.722;9.388;2022-10-17T05:39:57;9.20;99.90
8662;DHT22;29684;47.722;9.388;2022-10-17T05:42:46;9.40;99.90
8662;DHT22;29684;47.722;9.388;2022-10-17T05:45:30;9.50;99.90
8662;DHT22;29684;47.722;9.388;2022-10-17T05:48:14;9.60;99.90
8662;DHT22;29684;47.722;9.388;2022-10-17T05:51:05;9.70;99.90
8662;DHT22;29684;47.722;9.388;2022-10-17T05:53:50;9.70;99.90
8662;DHT22;29684;47.722;9.388;2022-10-17T05:56:35;9.80;99.90
8662;DHT22;29684;47.722;9.388;2022-10-17T05:59:19;9.70;99.90
8662;DHT22;29684;47.722;9.388;2022-10-17T06:02:04;9.80;99.90
8662;DHT22;29684;47.722;9.388;2022-10-17T06:04:48;9.80;99.90
8662;DHT22;29684;47.722;9.388;2022-10-17T06:07:34;9.80;99.90
8662;DHT22;29684;47.722;9.388;2022-10-17T06:10:18;9.70;99.90
8662;DHT22;29684;47.722;9.388;2022-10-17T06:13:02;9.40;99.90
8662;DHT22;29684;47.722;9.388;2022-10-17T06:15:46;9.00;99.90
8662;DHT22;29684;47.722;9.388;2022-10-17T06:18:31;8.80;99.90
8662;DHT22;29684;47.722;9.388;2022-10-17T06:21:19;8.80;99.90
8662;DHT22;29684;47.722;9.388;2022-10-17T06:24:03;9.00;99.90
8662;DHT22;29684;47.722;9.388;2022-10-17T06:26:47;8.90;99.90
8662;DHT22;29684;47.722;9.388;2022-10-17T06:29:32;9.10;99.90
8662;DHT22;29684;47.722;9.388;2022-10-17T06:32:17;9.20;99.90
8662;DHT22;29684;47.722;9.388;2022-10-17T06:35:00;9.40;99.90
8662;DHT22;29684;47.722;9.388;2022-10-17T06:37:45;9.50;99.90
8662;DHT22;29684;47.722;9.388;2022-10-17T06:40:29;9.80;99.90
8662;DHT22;29684;47.722;9.388;2022-10-17T06:43:13;10.00;99.90
8662;DHT22;29684;47.722;9.388;2022-10-17T06:45:57;10.00;99.90
8662;DHT22;29684;47.722;9.388;2022-10-17T06:48:41;10.10;99.90
8662;DHT22;29684;47.722;9.388;2022-10-17T06:51:25;10.10;99.90
8662;DHT22;29684;47.722;9.388;2022-10-17T06:54:09;10.00;99.90
8662;DHT22;29684;47.722;9.388;2022-10-17T06:56:53;9.90;99.90
8662;DHT22;29684;47.722;9.388;2022-10-17T06:59:39;9.90;99.90
8662;DHT22;29684;47.722;9.388;2022-10-17T07:02:23;9.70;99.90
8662;DHT22;29684;47.722;9.388;2022-10-17T07:05:07;10.00;99.90
8662;DHT22;29684;47.722;9.388;2022-10-17T07:07:51;10.10;99.90
8662;DHT22;29684;47.722;9.388;2022-10-17T07:10:35;10.20;99.90
8662;DHT22;29684;47.722;9.388;2022-10-17T07:13:22;10.20;99.90
8662;DHT22;29684;47.722;9.388;2022-10-17T07:16:07;10.40;99.90
8662;DHT22;29684;47.722;9.388;2022-10-17T07:18:51;10.50;99.90
8662;DHT22;29684;47.722;9.388;2022-10-17T07:21:35;10.50;99.90
8662;DHT22;29684;47.722;9.388;2022-10-17T07:24:20;10.60;99.90
8662;DHT22;29684;47.722;9.388;2022-10-17T07:27:04;10.60;99.90
8662;DHT22;29684;47.722;9.388;2022-10-17T07:29:48;10.70;99.90
8662;DHT22;29684;47.722;9.388;2022-10-17T07:32:32;10.80;99.90
8662;DHT22;29684;47.722;9.388;2022-10-17T07:35:16;10.90;99.90
8662;DHT22;29684;47.722;9.388;2022-10-17T07:38:00;11.00;99.90
8662;DHT22;29684;47.722;9.388;2022-10-17T07:40:44;11.10;99.90
8662;DHT22;29684;47.722;9.388;2022-10-17T07:43:29;11.20;99.90
8662;DHT22;29684;47.722;9.388;2022-10-17T07:46:14;11.30;99.90
8662;DHT22;29684;47.722;9.388;2022-10-17T07:48:58;11.60;99.90
8662;DHT22;29684;47.722;9.388;2022-10-17T07:51:42;12.30;99.90
8662;DHT22;29684;47.722;9.388;2022-10-17T07:54:27;12.10;99.90
8662;DHT22;29684;47.722;9.388;2022-10-17T07:57:10;12.20;99.90
8662;DHT22;29684;47.722;9.388;2022-10-17T07:59:55;11.30;99.90
8662;DHT22;29684;47.722;9.388;2022-10-17T08:02:39;12.40;99.90
8662;DHT22;29684;47.722;9.388;2022-10-17T08:05:24;12.50;99.90
8662;DHT22;29684;47.722;9.388;2022-10-17T08:08:08;12.60;99.90
8662;DHT22;29684;47.722;9.388;2022-10-17T08:10:54;12.80;99.90
8662;DHT22;29684;47.722;9.388;2022-10-17T08:13:39;12.70;99.90
8662;DHT22;29684;47.722;9.388;2022-10-17T08:16:23;12.80;99.90
8662;DHT22;29684;47.722;9.388;2022-10-17T08:19:07;13.00;99.90
8662;DHT22;29684;47.722;9.388;2022-10-17T08:21:54;13.00;99.90
8662;DHT22;29684;47.722;9.388;2022-10-17T08:24:38;13.00;99.90
8662;DHT22;29684;47.722;9.388;2022-10-17T08:27:22;13.20;99.90
8662;DHT22;29684;47.722;9.388;2022-10-17T08:30:08;13.20;99.90
8662;DHT22;29684;47.722;9.388;2022-10-17T08:32:52;13.30;99.90
8662;DHT22;29684;47.722;9.388;2022-10-17T08:35:41;13.30;99.90
8662;DHT22;29684;47.722;9.388;2022-10-17T08:38:29;13.50;99.90
8662;DHT22;29684;47.722;9.388;2022-10-17T08:44:41;13.80;99.90
8662;DHT22;29684;47.722;9.388;2022-10-17T08:47:39;13.80;99.90
8662;DHT22;29684;47.722;9.388;2022-10-17T08:50:38;13.90;99.90
8662;DHT22;29684;47.722;9.388;2022-10-17T08:53:44;14.10;99.90
8662;DHT22;29684;47.722;9.388;2022-10-17T08:56:37;14.30;99.90
8662;DHT22;29684;47.722;9.388;2022-10-17T08:59:26;14.50;99.90
8662;DHT22;29684;47.722;9.388;2022-10-17T09:06:03;14.90;99.90
8662;DHT22;29684;47.722;9.388;2022-10-17T09:12:19;15.30;99.90
8662;DHT22;29684;47.722;9.388;2022-10-17T09:15:26;15.30;99.90
8662;DHT22;29684;47.722;9.388;2022-10-17T09:18:17;16.20;99.90
8662;DHT22;29684;47.722;9.388;2022-10-17T09:21:25;15.90;99.90
8662;DHT22;29684;47.722;9.388;2022-10-17T09:24:37;16.10;99.90
8662;DHT22;29684;47.722;9.388;2022-10-17T09:27:35;16.10;99.90
8662;DHT22;29684;47.722;9.388;2022-10-17T09:33:23;16.20;99.90
8662;DHT22;29684;47.722;9.388;2022-10-17T09:39:02;16.40;99.90
8662;DHT22;29684;47.722;9.388;2022-10-17T09:41:50;16.90;99.90
8662;DHT22;29684;47.722;9.388;2022-10-17T09:50:54;17.80;99.90
8662;DHT22;29684;47.722;9.388;2022-10-17T09:53:41;18.00;99.90
8662;DHT22;29684;47.722;9.388;2022-10-17T09:56:28;17.80;99.90
8662;DHT22;29684;47.722;9.388;2022-10-17T09:59:12;17.50;99.90
8662;DHT22;29684;47.722;9.388;2022-10-17T10:05:02;17.90;99.90
8662;DHT22;29684;47.722;9.388;2022-10-17T10:08:20;18.00;99.90
8662;DHT22;29684;47.722;9.388;2022-10-17T10:11:14;18.50;99.90
8662;DHT22;29684;47.722;9.388;2022-10-17T10:14:11;19.00;99.90
8662;DHT22;29684;47.722;9.388;2022-10-17T10:16:56;19.00;99.90
8662;DHT22;29684;47.722;9.388;2022-10-17T10:19:49;19.10;99.90
8662;DHT22;29684;47.722;9.388;2022-10-17T10:22:34;18.90;99.90
8662;DHT22;29684;47.722;9.388;2022-10-17T10:25:18;18.90;99.90
8662;DHT22;29684;47.722;9.388;2022-10-17T10:28:09;19.20;99.90
8662;DHT22;29684;47.722;9.388;2022-10-17T10:30:56;19.30;99.90
8662;DHT22;29684;47.722;9.388;2022-10-17T10:33:42;19.30;99.90
8662;DHT22;29684;47.722;9.388;2022-10-17T10:36:42;19.50;99.90
8662;DHT22;29684;47.722;9.388;2022-10-17T10:51:17;19.30;99.90
8662;DHT22;29684;47.722;9.388;2022-10-17T10:57:04;19.60;99.90
8662;DHT22;29684;47.722;9.388;2022-10-17T11:00:05;19.60;99.90
8662;DHT22;29684;47.722;9.388;2022-10-17T11:03:12;19.30;99.90
8662;DHT22;29684;47.722;9.388;2022-10-17T11:06:03;19.70;99.90
8662;DHT22;29684;47.722;9.388;2022-10-17T11:12:12;19.60;99.90
8662;DHT22;29684;47.722;9.388;2022-10-17T11:21:19;19.70;99.90
8662;DHT22;29684;47.722;9.388;2022-10-17T11:24:14;20.20;99.90
8662;DHT22;29684;47.722;9.388;2022-10-17T11:27:02;20.20;99.90
8662;DHT22;29684;47.722;9.388;2022-10-17T11:29:47;20.30;99.90
8662;DHT22;29684;47.722;9.388;2022-10-17T11:33:04;20.30;99.90
8662;DHT22;29684;47.722;9.388;2022-10-17T11:35:44;20.40;99.90
8662;DHT22;29684;47.722;9.388;2022-10-17T11:38:50;20.50;99.90
8662;DHT22;29684;47.722;9.388;2022-10-17T11:41:37;20.50;99.90
8662;DHT22;29684;47.722;9.388;2022-10-17T11:48:08;21.30;99.90
8662;DHT22;29684;47.722;9.388;2022-10-17T11:50:36;21.80;99.90
8662;DHT22;29684;47.722;9.388;2022-10-17T11:53:27;22.40;99.90
8662;DHT22;29684;47.722;9.388;2022-10-17T11:56:16;22.80;99.90
8662;DHT22;29684;47.722;9.388;2022-10-17T12:02:11;23.00;99.90
8662;DHT22;29684;47.722;9.388;2022-10-17T12:05:53;22.70;99.90
8662;DHT22;29684;47.722;9.388;2022-10-17T12:17:24;22.90;99.90
8662;DHT22;29684;47.722;9.388;2022-10-17T12:26:03;24.10;99.90
8662;DHT22;29684;47.722;9.388;2022-10-17T12:28:51;24.70;99.90
8662;DHT22;29684;47.722;9.388;2022-10-17T12:31:36;24.20;99.90
8662;DHT22;29684;47.722;9.388;2022-10-17T12:34:22;25.00;99.90
8662;DHT22;29684;47.722;9.388;2022-10-17T12:37:10;24.90;99.90
8662;DHT22;29684;47.722;9.388;2022-10-17T12:39:54;25.00;99.90
8662;DHT22;29684;47.722;9.388;2022-10-17T12:42:47;25.10;99.90
8662;DHT22;29684;47.722;9.388;2022-10-17T12:45:52;25.50;99.90
8662;DHT22;29684;47.722;9.388;2022-10-17T12:51:21;25.10;99.90
8662;DHT22;29684;47.722;9.388;2022-10-17T12:54:10;25.30;99.90
8662;DHT22;29684;47.722;9.388;2022-10-17T12:56:58;25.60;99.90
8662;DHT22;29684;47.722;9.388;2022-10-17T12:59:43;25.80;99.90
8662;DHT22;29684;47.722;9.388;2022-10-17T13:02:29;26.20;99.90
8662;DHT22;29684;47.722;9.388;2022-10-17T13:05:27;26.20;99.90
8662;DHT22;29684;47.722;9.388;2022-10-17T13:08:24;26.80;99.90
8662;DHT22;29684;47.722;9.388;2022-10-17T13:11:13;26.70;99.90
8662;DHT22;29684;47.722;9.388;2022-10-17T13:14:00;25.90;99.90
8662;DHT22;29684;47.722;9.388;2022-10-17T13:16:58;26.40;99.90
8662;DHT22;29684;47.722;9.388;2022-10-17T13:19:44;26.30;99.90
8662;DHT22;29684;47.722;9.388;2022-10-17T13:22:30;26.00;99.90
8662;DHT22;29684;47.722;9.388;2022-10-17T13:25:17;26.30;99.90
8662;DHT22;29684;47.722;9.388;2022-10-17T13:28:11;26.90;99.90
8662;DHT22;29684;47.722;9.388;2022-10-17T13:30:55;27.10;99.90
8662;DHT22;29684;47.722;9.388;2022-10-17T13:33:40;26.60;99.90
8662;DHT22;29684;47.722;9.388;2022-10-17T13:36:26;26.80;99.90
8662;DHT22;29684;47.722;9.388;2022-10-17T13:39:28;26.50;99.90
8662;DHT22;29684;47.722;9.388;2022-10-17T13:42:37;26.60;99.90
8662;DHT22;29684;47.722;9.388;2022-10-17T13:45:33;27.10;99.90
8662;DHT22;29684;47.722;9.388;2022-10-17T13:48:23;27.60;99.90
8662;DHT22;29684;47.722;9.388;2022-10-17T13:51:09;27.50;99.90
8662;DHT22;29684;47.722;9.388;2022-10-17T13:53:55;27.50;99.90
8662;DHT22;29684;47.722;9.388;2022-10-17T13:56:39;28.00;99.90
8662;DHT22;29684;47.722;9.388;2022-10-17T13:59:40;28.20;99.90
8662;DHT22;29684;47.722;9.388;2022-10-17T14:02:29;27.90;99.90
8662;DHT22;29684;47.722;9.388;2022-10-17T14:05:17;27.30;99.90
8662;DHT22;29684;47.722;9.388;2022-10-17T14:08:03;27.80;99.90
8662;DHT22;29684;47.722;9.388;2022-10-17T14:10:47;27.70;99.90
8662;DHT22;29684;47.722;9.388;2022-10-17T14:13:32;27.40;99.90
8662;DHT22;29684;47.722;9.388;2022-10-17T14:16:20;26.80;99.90
8662;DHT22;29684;47.722;9.388;2022-10-17T14:19:06;27.50;99.90
8662;DHT22;29684;47.722;9.388;2022-10-17T14:25:01;29.50;99.90
8662;DHT22;29684;47.722;9.388;2022-10-17T14:30:53;30.10;99.90
8662;DHT22;29684;47.722;9.388;2022-10-17T14:33:43;30.30;99.90
8662;DHT22;29684;47.722;9.388;2022-10-17T14:36:34;30.30;99.90
8662;DHT22;29684;47.722;9.388;2022-10-17T14:39:24;30.40;99.90
8662;DHT22;29684;47.722;9.388;2022-10-17T14:42:20;30.70;99.90
8662;DHT22;29684;47.722;9.388;2022-10-17T14:45:07;30.80;99.90
8662;DHT22;29684;47.722;9.388;2022-10-17T14:47:54;30.90;99.90
8662;DHT22;29684;47.722;9.388;2022-10-17T14:50:39;30.40;99.90
8662;DHT22;29684;47.722;9.388;2022-10-17T14:53:27;30.60;99.90
8662;DHT22;29684;47.722;9.388;2022-10-17T14:56:32;30.50;99.90
8662;DHT22;29684;47.722;9.388;2022-10-17T14:59:16;30.00;99.90
8662;DHT22;29684;47.722;9.388;2022-10-17T15:02:05;28.50;99.90
8662;DHT22;29684;47.722;9.388;2022-10-17T15:04:49;27.60;99.90
8662;DHT22;29684;47.722;9.388;2022-10-17T15:07:33;26.00;99.90
8662;DHT22;29684;47.722;9.388;2022-10-17T15:10:34;25.20;99.90
8662;DHT22;29684;47.722;9.388;2022-10-17T15:13:19;24.70;99.90
8662;DHT22;29684;47.722;9.388;2022-10-17T15:16:30;24.20;99.90
8662;DHT22;29684;47.722;9.388;2022-10-17T15:19:14;23.60;99.90
8662;DHT22;29684;47.722;9.388;2022-10-17T15:21:58;23.20;99.90
8662;DHT22;29684;47.722;9.388;2022-10-17T15:24:43;22.90;99.90
8662;DHT22;29684;47.722;9.388;2022-10-17T15:27:29;22.50;99.90
8662;DHT22;29684;47.722;9.388;2022-10-17T15:30:23;22.10;99.90
8662;DHT22;29684;47.722;9.388;2022-10-17T15:33:08;21.80;99.90
8662;DHT22;29684;47.722;9.388;2022-10-17T15:35:52;21.50;99.90
8662;DHT22;29684;47.722;9.388;2022-10-17T15:38:36;21.30;99.90
8662;DHT22;29684;47.722;9.388;2022-10-17T15:41:21;21.10;99.90
8662;DHT22;29684;47.722;9.388;2022-10-17T15:44:06;21.00;99.90
8662;DHT22;29684;47.722;9.388;2022-10-17T15:46:50;20.80;99.90
8662;DHT22;29684;47.722;9.388;2022-10-17T15:49:34;20.50;99.90
8662;DHT22;29684;47.722;9.388;2022-10-17T15:52:19;20.30;99.90
8662;DHT22;29684;47.722;9.388;2022-10-17T15:55:03;20.00;99.90
8662;DHT22;29684;47.722;9.388;2022-10-17T15:57:48;19.90;99.90
8662;DHT22;29684;47.722;9.388;2022-10-17T16:00:33;19.80;99.90
8662;DHT22;29684;47.722;9.388;2022-10-17T16:03:17;19.70;99.90
8662;DHT22;29684;47.722;9.388;2022-10-17T16:06:01;19.70;99.90
8662;DHT22;29684;47.722;9.388;2022-10-17T16:08:46;19.50;99.90
8662;DHT22;29684;47.722;9.388;2022-10-17T16:11:36;19.30;99.90
8662;DHT22;29684;47.722;9.388;2022-10-17T16:14:21;19.20;99.90
8662;DHT22;29684;47.722;9.388;2022-10-17T16:17:05;19.20;99.90
8662;DHT22;29684;47.722;9.388;2022-10-17T16:19:49;19.10;99.90
8662;DHT22;29684;47.722;9.388;2022-10-17T16:22:34;19.10;99.90
8662;DHT22;29684;47.722;9.388;2022-10-17T16:25:24;18.90;99.90
8662;DHT22;29684;47.722;9.388;2022-10-17T16:28:08;18.70;99.90
8662;DHT22;29684;47.722;9.388;2022-10-17T16:30:54;18.60;99.90
8662;DHT22;29684;47.722;9.388;2022-10-17T16:33:38;18.50;99.90
8662;DHT22;29684;47.722;9.388;2022-10-17T16:36:23;18.30;99.90
8662;DHT22;29684;47.722;9.388;2022-10-17T16:39:07;18.20;99.90
8662;DHT22;29684;47.722;9.388;2022-10-17T16:41:51;18.00;99.90
8662;DHT22;29684;47.722;9.388;2022-10-17T16:44:35;17.90;99.90
8662;DHT22;29684;47.722;9.388;2022-10-17T16:47:19;17.80;99.90
8662;DHT22;29684;47.722;9.388;2022-10-17T16:50:04;17.60;99.90
8662;DHT22;29684;47.722;9.388;2022-10-17T16:52:48;17.50;99.90
8662;DHT22;29684;47.722;9.388;2022-10-17T16:55:33;17.40;99.90
8662;DHT22;29684;47.722;9.388;2022-10-17T16:58:16;17.30;99.90
8662;DHT22;29684;47.722;9.388;2022-10-17T17:01:02;17.10;99.90
8662;DHT22;29684;47.722;9.388;2022-10-17T17:03:47;16.90;99.90
8662;DHT22;29684;47.722;9.388;2022-10-17T17:06:32;16.80;99.90
8662;DHT22;29684;47.722;9.388;2022-10-17T17:09:16;16.70;99.90
8662;DHT22;29684;47.722;9.388;2022-10-17T17:12:00;16.70;99.90
8662;DHT22;29684;47.722;9.388;2022-10-17T17:14:44;16.60;99.90
8662;DHT22;29684;47.722;9.388;2022-10-17T17:17:29;16.50;99.90
8662;DHT22;29684;47.722;9.388;2022-10-17T17:20:13;16.40;99.90
8662;DHT22;29684;47.722;9.388;2022-10-17T17:22:57;16.30;99.90
8662;DHT22;29684;47.722;9.388;2022-10-17T17:25:41;16.20;99.90
8662;DHT22;29684;47.722;9.388;2022-10-17T17:28:29;16.10;99.90
8662;DHT22;29684;47.722;9.388;2022-10-17T17:31:16;16.00;99.90
8662;DHT22;29684;47.722;9.388;2022-10-17T17:34:01;15.90;99.90
8662;DHT22;29684;47.722;9.388;2022-10-17T17:36:46;15.90;99.90
8662;DHT22;29684;47.722;9.388;2022-10-17T17:39:30;15.80;99.90
8662;DHT22;29684;47.722;9.388;2022-10-17T17:42:14;15.80;99.90
8662;DHT22;29684;47.722;9.388;2022-10-17T17:44:58;15.80;99.90
8662;DHT22;29684;47.722;9.388;2022-10-17T17:47:42;15.80;99.90
8662;DHT22;29684;47.722;9.388;2022-10-17T17:50:26;15.80;99.90
8662;DHT22;29684;47.722;9.388;2022-10-17T17:53:12;15.60;99.90
8662;DHT22;29684;47.722;9.388;2022-10-17T17:59:01;15.30;99.90
8662;DHT22;29684;47.722;9.388;2022-10-17T18:01:46;15.20;99.90
8662;DHT22;29684;47.722;9.388;2022-10-17T18:04:30;15.20;99.90
8662;DHT22;29684;47.722;9.388;2022-10-17T18:07:15;15.10;99.90
8662;DHT22;29684;47.722;9.388;2022-10-17T18:09:59;14.90;99.90
8662;DHT22;29684;47.722;9.388;2022-10-17T18:12:43;14.80;99.90
8662;DHT22;29684;47.722;9.388;2022-10-17T18:15:28;14.70;99.90
8662;DHT22;29684;47.722;9.388;2022-10-17T18:18:12;14.60;99.90
8662;DHT22;29684;47.722;9.388;2022-10-17T18:21:00;14.60;99.90
8662;DHT22;29684;47.722;9.388;2022-10-17T18:23:45;14.50;99.90
8662;DHT22;29684;47.722;9.388;2022-10-17T18:26:29;14.50;99.90
8662;DHT22;29684;47.722;9.388;2022-10-17T18:29:13;14.40;99.90
8662;DHT22;29684;47.722;9.388;2022-10-17T18:31:58;14.30;99.90
8662;DHT22;29684;47.722;9.388;2022-10-17T18:34:43;14.30;99.90
8662;DHT22;29684;47.722;9.388;2022-10-17T18:37:26;14.20;99.90
8662;DHT22;29684;47.722;9.388;2022-10-17T18:40:11;14.20;99.90
8662;DHT22;29684;47.722;9.388;2022-10-17T18:42:55;14.10;99.90
8662;DHT22;29684;47.722;9.388;2022-10-17T18:45:39;14.10;99.90
8662;DHT22;29684;47.722;9.388;2022-10-17T18:48:23;14.00;99.90
8662;DHT22;29684;47.722;9.388;2022-10-17T18:51:07;14.00;99.90
8662;DHT22;29684;47.722;9.388;2022-10-17T18:53:54;14.00;99.90
8662;DHT22;29684;47.722;9.388;2022-10-17T18:56:38;14.10;99.90
8662;DHT22;29684;47.722;9.388;2022-10-17T18:59:22;14.10;99.90
8662;DHT22;29684;47.722;9.388;2022-10-17T19:02:09;14.10;99.90
8662;DHT22;29684;47.722;9.388;2022-10-17T19:04:55;14.10;99.90
8662;DHT22;29684;47.722;9.388;2022-10-17T19:07:39;14.10;99.90
8662;DHT22;29684;47.722;9.388;2022-10-17T19:10:24;14.00;99.90
8662;DHT22;29684;47.722;9.388;2022-10-17T19:13:09;13.90;99.90
8662;DHT22;29684;47.722;9.388;2022-10-17T19:15:54;13.90;99.90
8662;DHT22;29684;47.722;9.388;2022-10-17T19:18:41;13.90;99.90
8662;DHT22;29684;47.722;9.388;2022-10-17T19:21:26;13.90;99.90
8662;DHT22;29684;47.722;9.388;2022-10-17T19:24:13;13.80;99.90
8662;DHT22;29684;47.722;9.388;2022-10-17T19:26:58;13.90;99.90
8662;DHT22;29684;47.722;9.388;2022-10-17T19:29:45;13.90;99.90
8662;DHT22;29684;47.722;9.388;2022-10-17T19:32:29;13.90;99.90
8662;DHT22;29684;47.722;9.388;2022-10-17T19:35:15;13.90;99.90
8662;DHT22;29684;47.722;9.388;2022-10-17T19:37:59;13.90;99.90
8662;DHT22;29684;47.722;9.388;2022-10-17T19:40:43;13.90;99.90
8662;DHT22;29684;47.722;9.388;2022-10-17T19:43:28;13.80;99.90
8662;DHT22;29684;47.722;9.388;2022-10-17T19:46:14;13.80;99.90
8662;DHT22;29684;47.722;9.388;2022-10-17T19:48:59;13.80;99.90